Terminal Aerodrome Forecast
Issued by NWS Sterling, VA

Current Version | Previous Version | Graphics & Text | Print | Product List | Glossary On
Versions: 1 2 3 4 5 6 7 8 9 10 11 12 13
595
FTUS41 KLWX 280541
TAFMRB
TAF
KMRB 280541Z 2806/2906 VRB03KT P6SM FEW250
     FM280900 VRB03KT 3SM BR FEW250
     FM281200 VRB03KT P6SM FEW250
     FM282000 14006KT P6SM FEW250=

USA.gov is the U.S. government's official web portal to all federal, state and local government web resources and services.